sensor_id;sensor_type;location;lat;lon;timestamp;P1;durP1;ratioP1;P2;durP2;ratioP2
29774;SDS011;16676;51.202;6.774;2023-04-28T00:01:24;2.83;;;1.50;;
29774;SDS011;16676;51.202;6.774;2023-04-28T00:05:28;3.65;;;1.88;;
29774;SDS011;16676;51.202;6.774;2023-04-28T00:09:30;2.53;;;1.73;;
29774;SDS011;16676;51.202;6.774;2023-04-28T00:13:31;2.78;;;1.70;;
29774;SDS011;16676;51.202;6.774;2023-04-28T00:17:34;1.85;;;1.50;;
29774;SDS011;16676;51.202;6.774;2023-04-28T00:21:37;2.38;;;1.70;;
29774;SDS011;16676;51.202;6.774;2023-04-28T00:25:39;2.08;;;1.50;;
29774;SDS011;16676;51.202;6.774;2023-04-28T00:29:41;3.85;;;1.25;;
29774;SDS011;16676;51.202;6.774;2023-04-28T00:33:43;2.47;;;1.70;;
29774;SDS011;16676;51.202;6.774;2023-04-28T00:37:46;2.88;;;1.50;;
29774;SDS011;16676;51.202;6.774;2023-04-28T00:41:48;2.95;;;1.70;;
29774;SDS011;16676;51.202;6.774;2023-04-28T00:45:50;2.17;;;1.50;;
29774;SDS011;16676;51.202;6.774;2023-04-28T00:49:53;2.58;;;1.50;;
29774;SDS011;16676;51.202;6.774;2023-04-28T00:53:57;2.20;;;1.40;;
29774;SDS011;16676;51.202;6.774;2023-04-28T00:57:59;2.67;;;1.30;;
29774;SDS011;16676;51.202;6.774;2023-04-28T01:02:02;1.63;;;1.42;;
29774;SDS011;16676;51.202;6.774;2023-04-28T01:06:06;2.58;;;1.60;;
29774;SDS011;16676;51.202;6.774;2023-04-28T01:10:10;3.13;;;1.70;;
29774;SDS011;16676;51.202;6.774;2023-04-28T01:14:12;3.05;;;1.50;;
29774;SDS011;16676;51.202;6.774;2023-04-28T01:18:14;1.60;;;1.27;;
29774;SDS011;16676;51.202;6.774;2023-04-28T01:22:17;2.55;;;1.60;;
29774;SDS011;16676;51.202;6.774;2023-04-28T01:26:20;2.47;;;1.45;;
29774;SDS011;16676;51.202;6.774;2023-04-28T01:30:22;1.77;;;1.40;;
29774;SDS011;16676;51.202;6.774;2023-04-28T01:34:24;2.55;;;1.52;;
29774;SDS011;16676;51.202;6.774;2023-04-28T01:38:26;2.10;;;1.50;;
29774;SDS011;16676;51.202;6.774;2023-04-28T01:42:29;1.95;;;1.50;;
29774;SDS011;16676;51.202;6.774;2023-04-28T01:46:31;3.28;;;1.70;;
29774;SDS011;16676;51.202;6.774;2023-04-28T01:50:33;1.88;;;1.35;;
29774;SDS011;16676;51.202;6.774;2023-04-28T01:54:35;1.90;;;1.40;;
29774;SDS011;16676;51.202;6.774;2023-04-28T01:58:39;2.55;;;1.63;;
29774;SDS011;16676;51.202;6.774;2023-04-28T02:02:40;2.67;;;1.27;;
29774;SDS011;16676;51.202;6.774;2023-04-28T02:06:42;3.13;;;1.40;;
29774;SDS011;16676;51.202;6.774;2023-04-28T02:10:44;2.63;;;1.52;;
29774;SDS011;16676;51.202;6.774;2023-04-28T02:14:47;1.65;;;1.38;;
29774;SDS011;16676;51.202;6.774;2023-04-28T02:18:50;2.28;;;1.42;;
29774;SDS011;16676;51.202;6.774;2023-04-28T02:22:52;1.20;;;1.10;;
29774;SDS011;16676;51.202;6.774;2023-04-28T02:26:54;1.35;;;1.15;;
29774;SDS011;16676;51.202;6.774;2023-04-28T02:31:03;3.00;;;1.30;;
29774;SDS011;16676;51.202;6.774;2023-04-28T02:35:06;1.42;;;1.10;;
29774;SDS011;16676;51.202;6.774;2023-04-28T02:39:08;1.65;;;1.08;;
29774;SDS011;16676;51.202;6.774;2023-04-28T02:43:10;1.90;;;1.40;;
29774;SDS011;16676;51.202;6.774;2023-04-28T02:47:14;1.70;;;1.35;;
29774;SDS011;16676;51.202;6.774;2023-04-28T02:51:15;1.30;;;1.20;;
29774;SDS011;16676;51.202;6.774;2023-04-28T02:55:17;2.15;;;1.40;;
29774;SDS011;16676;51.202;6.774;2023-04-28T02:59:23;1.52;;;1.10;;
29774;SDS011;16676;51.202;6.774;2023-04-28T03:03:27;2.22;;;1.45;;
29774;SDS011;16676;51.202;6.774;2023-04-28T03:07:29;2.75;;;1.58;;
29774;SDS011;16676;51.202;6.774;2023-04-28T03:11:31;1.70;;;1.20;;
29774;SDS011;16676;51.202;6.774;2023-04-28T03:15:33;1.25;;;1.15;;
29774;SDS011;16676;51.202;6.774;2023-04-28T03:19:37;2.55;;;1.30;;
29774;SDS011;16676;51.202;6.774;2023-04-28T03:23:38;1.52;;;1.30;;
29774;SDS011;16676;51.202;6.774;2023-04-28T03:27:40;2.20;;;1.40;;
29774;SDS011;16676;51.202;6.774;2023-04-28T03:31:42;1.85;;;1.33;;
29774;SDS011;16676;51.202;6.774;2023-04-28T03:35:45;1.73;;;1.52;;
29774;SDS011;16676;51.202;6.774;2023-04-28T03:39:47;1.83;;;1.35;;
29774;SDS011;16676;51.202;6.774;2023-04-28T03:43:50;1.40;;;1.30;;
29774;SDS011;16676;51.202;6.774;2023-04-28T03:47:52;3.00;;;1.50;;
29774;SDS011;16676;51.202;6.774;2023-04-28T03:51:55;1.80;;;1.35;;
29774;SDS011;16676;51.202;6.774;2023-04-28T03:55:57;2.28;;;1.42;;
29774;SDS011;16676;51.202;6.774;2023-04-28T03:59:59;2.60;;;1.75;;
29774;SDS011;16676;51.202;6.774;2023-04-28T04:04:02;1.55;;;1.30;;
29774;SDS011;16676;51.202;6.774;2023-04-28T04:08:05;1.40;;;1.17;;
29774;SDS011;16676;51.202;6.774;2023-04-28T04:12:07;1.55;;;1.30;;
29774;SDS011;16676;51.202;6.774;2023-04-28T04:16:09;1.50;;;1.40;;
29774;SDS011;16676;51.202;6.774;2023-04-28T04:20:11;2.60;;;1.30;;
29774;SDS011;16676;51.202;6.774;2023-04-28T04:24:14;1.63;;;1.20;;
29774;SDS011;16676;51.202;6.774;2023-04-28T04:28:16;1.15;;;1.05;;
29774;SDS011;16676;51.202;6.774;2023-04-28T04:32:18;2.30;;;1.50;;
29774;SDS011;16676;51.202;6.774;2023-04-28T04:36:20;2.72;;;1.58;;
29774;SDS011;16676;51.202;6.774;2023-04-28T04:40:24;3.75;;;1.80;;
29774;SDS011;16676;51.202;6.774;2023-04-28T04:44:25;5.15;;;1.75;;
29774;SDS011;16676;51.202;6.774;2023-04-28T04:48:27;3.75;;;1.40;;
29774;SDS011;16676;51.202;6.774;2023-04-28T04:52:29;3.22;;;1.40;;
29774;SDS011;16676;51.202;6.774;2023-04-28T04:56:33;3.17;;;1.65;;
29774;SDS011;16676;51.202;6.774;2023-04-28T05:00:35;10.55;;;2.42;;
29774;SDS011;16676;51.202;6.774;2023-04-28T05:04:36;6.25;;;2.80;;
29774;SDS011;16676;51.202;6.774;2023-04-28T05:08:38;5.70;;;3.10;;
29774;SDS011;16676;51.202;6.774;2023-04-28T05:12:42;8.23;;;3.92;;
29774;SDS011;16676;51.202;6.774;2023-04-28T05:16:44;6.35;;;3.15;;
29774;SDS011;16676;51.202;6.774;2023-04-28T05:20:46;7.00;;;3.33;;
29774;SDS011;16676;51.202;6.774;2023-04-28T05:24:48;6.65;;;3.65;;
29774;SDS011;16676;51.202;6.774;2023-04-28T05:28:51;7.25;;;3.60;;
29774;SDS011;16676;51.202;6.774;2023-04-28T05:32:54;6.40;;;3.58;;
29774;SDS011;16676;51.202;6.774;2023-04-28T05:36:56;6.43;;;3.63;;
29774;SDS011;16676;51.202;6.774;2023-04-28T05:40:58;10.85;;;4.05;;
29774;SDS011;16676;51.202;6.774;2023-04-28T05:45:03;6.50;;;4.55;;
29774;SDS011;16676;51.202;6.774;2023-04-28T05:49:06;6.90;;;4.13;;
29774;SDS011;16676;51.202;6.774;2023-04-28T05:53:09;7.28;;;4.03;;
29774;SDS011;16676;51.202;6.774;2023-04-28T05:57:11;8.07;;;4.43;;
29774;SDS011;16676;51.202;6.774;2023-04-28T06:01:14;9.15;;;4.40;;
29774;SDS011;16676;51.202;6.774;2023-04-28T06:05:16;9.85;;;4.57;;
29774;SDS011;16676;51.202;6.774;2023-04-28T06:09:18;9.93;;;4.30;;
29774;SDS011;16676;51.202;6.774;2023-04-28T06:13:20;10.73;;;4.93;;
29774;SDS011;16676;51.202;6.774;2023-04-28T06:17:23;7.65;;;4.25;;
29774;SDS011;16676;51.202;6.774;2023-04-28T06:21:25;8.50;;;4.65;;
29774;SDS011;16676;51.202;6.774;2023-04-28T06:25:27;14.20;;;4.60;;
29774;SDS011;16676;51.202;6.774;2023-04-28T06:29:30;7.90;;;3.85;;
29774;SDS011;16676;51.202;6.774;2023-04-28T06:33:33;9.57;;;4.85;;
29774;SDS011;16676;51.202;6.774;2023-04-28T06:37:35;7.00;;;3.72;;
29774;SDS011;16676;51.202;6.774;2023-04-28T06:41:37;5.72;;;2.88;;
29774;SDS011;16676;51.202;6.774;2023-04-28T06:45:39;5.47;;;2.75;;
29774;SDS011;16676;51.202;6.774;2023-04-28T06:49:42;6.63;;;3.63;;
29774;SDS011;16676;51.202;6.774;2023-04-28T06:53:46;6.45;;;3.13;;
29774;SDS011;16676;51.202;6.774;2023-04-28T06:57:50;5.95;;;2.92;;
29774;SDS011;16676;51.202;6.774;2023-04-28T07:01:52;8.00;;;3.40;;
29774;SDS011;16676;51.202;6.774;2023-04-28T07:05:55;4.82;;;2.92;;
29774;SDS011;16676;51.202;6.774;2023-04-28T07:09:58;6.25;;;3.25;;
29774;SDS011;16676;51.202;6.774;2023-04-28T07:14:00;4.72;;;3.00;;
29774;SDS011;16676;51.202;6.774;2023-04-28T07:18:02;6.35;;;3.45;;
29774;SDS011;16676;51.202;6.774;2023-04-28T07:22:05;6.10;;;3.47;;
29774;SDS011;16676;51.202;6.774;2023-04-28T07:26:07;5.13;;;3.22;;
29774;SDS011;16676;51.202;6.774;2023-04-28T07:30:09;6.35;;;3.35;;
29774;SDS011;16676;51.202;6.774;2023-04-28T07:34:12;4.47;;;3.42;;
29774;SDS011;16676;51.202;6.774;2023-04-28T07:38:15;6.45;;;3.50;;
29774;SDS011;16676;51.202;6.774;2023-04-28T07:42:19;6.97;;;3.60;;
29774;SDS011;16676;51.202;6.774;2023-04-28T07:46:21;4.70;;;3.17;;
29774;SDS011;16676;51.202;6.774;2023-04-28T07:50:23;6.90;;;3.30;;
29774;SDS011;16676;51.202;6.774;2023-04-28T07:54:26;8.10;;;3.83;;
29774;SDS011;16676;51.202;6.774;2023-04-28T07:58:28;6.32;;;3.38;;
29774;SDS011;16676;51.202;6.774;2023-04-28T08:02:31;7.85;;;3.92;;
29774;SDS011;16676;51.202;6.774;2023-04-28T08:06:33;5.93;;;3.55;;
29774;SDS011;16676;51.202;6.774;2023-04-28T08:10:37;7.28;;;3.67;;
29774;SDS011;16676;51.202;6.774;2023-04-28T08:14:41;7.57;;;3.63;;
29774;SDS011;16676;51.202;6.774;2023-04-28T08:18:43;10.15;;;3.70;;
29774;SDS011;16676;51.202;6.774;2023-04-28T08:22:45;5.78;;;3.65;;
29774;SDS011;16676;51.202;6.774;2023-04-28T08:26:48;8.15;;;4.05;;
29774;SDS011;16676;51.202;6.774;2023-04-28T08:30:50;6.60;;;3.30;;
29774;SDS011;16676;51.202;6.774;2023-04-28T08:34:52;6.22;;;3.55;;
29774;SDS011;16676;51.202;6.774;2023-04-28T08:38:54;6.85;;;3.55;;
29774;SDS011;16676;51.202;6.774;2023-04-28T08:42:59;8.75;;;3.92;;
29774;SDS011;16676;51.202;6.774;2023-04-28T08:47:01;6.53;;;3.65;;
29774;SDS011;16676;51.202;6.774;2023-04-28T08:51:05;6.82;;;4.05;;
29774;SDS011;16676;51.202;6.774;2023-04-28T08:55:08;7.47;;;3.60;;
29774;SDS011;16676;51.202;6.774;2023-04-28T08:59:13;7.95;;;3.78;;
29774;SDS011;16676;51.202;6.774;2023-04-28T09:03:17;5.70;;;3.53;;
29774;SDS011;16676;51.202;6.774;2023-04-28T09:07:19;8.20;;;3.75;;
29774;SDS011;16676;51.202;6.774;2023-04-28T09:11:21;7.28;;;3.67;;
29774;SDS011;16676;51.202;6.774;2023-04-28T09:15:26;6.60;;;3.17;;
29774;SDS011;16676;51.202;6.774;2023-04-28T09:19:31;5.05;;;2.75;;
29774;SDS011;16676;51.202;6.774;2023-04-28T09:23:45;6.20;;;3.15;;
29774;SDS011;16676;51.202;6.774;2023-04-28T09:27:48;5.25;;;2.60;;
29774;SDS011;16676;51.202;6.774;2023-04-28T09:31:51;5.65;;;2.65;;
29774;SDS011;16676;51.202;6.774;2023-04-28T09:35:53;11.63;;;2.90;;
29774;SDS011;16676;51.202;6.774;2023-04-28T09:39:56;8.45;;;2.45;;
29774;SDS011;16676;51.202;6.774;2023-04-28T09:44:08;5.60;;;2.63;;
29774;SDS011;16676;51.202;6.774;2023-04-28T09:48:12;3.30;;;2.05;;
29774;SDS011;16676;51.202;6.774;2023-04-28T09:52:14;3.70;;;2.00;;
29774;SDS011;16676;51.202;6.774;2023-04-28T09:56:16;2.75;;;1.90;;
29774;SDS011;16676;51.202;6.774;2023-04-28T10:00:20;4.25;;;2.13;;
29774;SDS011;16676;51.202;6.774;2023-04-28T10:04:24;3.22;;;2.00;;
29774;SDS011;16676;51.202;6.774;2023-04-28T10:08:30;3.23;;;2.00;;
29774;SDS011;16676;51.202;6.774;2023-04-28T10:12:32;4.65;;;1.80;;
29774;SDS011;16676;51.202;6.774;2023-04-28T10:16:37;4.50;;;2.17;;
29774;SDS011;16676;51.202;6.774;2023-04-28T10:20:41;3.85;;;1.88;;
29774;SDS011;16676;51.202;6.774;2023-04-28T10:24:49;3.03;;;1.83;;
29774;SDS011;16676;51.202;6.774;2023-04-28T10:29:04;5.20;;;1.88;;
29774;SDS011;16676;51.202;6.774;2023-04-28T10:33:22;4.68;;;2.13;;
29774;SDS011;16676;51.202;6.774;2023-04-28T10:42:02;3.78;;;1.95;;
29774;SDS011;16676;51.202;6.774;2023-04-28T10:46:05;3.55;;;2.08;;
29774;SDS011;16676;51.202;6.774;2023-04-28T10:50:10;4.03;;;1.85;;
29774;SDS011;16676;51.202;6.774;2023-04-28T10:54:13;3.33;;;1.67;;
29774;SDS011;16676;51.202;6.774;2023-04-28T10:58:33;2.72;;;1.70;;
29774;SDS011;16676;51.202;6.774;2023-04-28T11:02:39;2.80;;;1.65;;
29774;SDS011;16676;51.202;6.774;2023-04-28T11:06:42;4.40;;;2.15;;
29774;SDS011;16676;51.202;6.774;2023-04-28T11:15:13;4.60;;;1.77;;
29774;SDS011;16676;51.202;6.774;2023-04-28T11:19:17;3.08;;;1.67;;
29774;SDS011;16676;51.202;6.774;2023-04-28T11:23:20;2.38;;;1.60;;
29774;SDS011;16676;51.202;6.774;2023-04-28T11:27:23;5.82;;;1.60;;
29774;SDS011;16676;51.202;6.774;2023-04-28T11:31:27;3.42;;;1.70;;
29774;SDS011;16676;51.202;6.774;2023-04-28T11:35:39;1.67;;;1.30;;
29774;SDS011;16676;51.202;6.774;2023-04-28T11:39:41;1.55;;;1.30;;
29774;SDS011;16676;51.202;6.774;2023-04-28T11:43:43;3.97;;;1.60;;
29774;SDS011;16676;51.202;6.774;2023-04-28T11:47:47;2.03;;;1.40;;
29774;SDS011;16676;51.202;6.774;2023-04-28T11:51:49;4.75;;;1.60;;
29774;SDS011;16676;51.202;6.774;2023-04-28T11:56:03;1.98;;;1.33;;
29774;SDS011;16676;51.202;6.774;2023-04-28T12:00:11;4.60;;;1.52;;
29774;SDS011;16676;51.202;6.774;2023-04-28T12:04:30;3.30;;;1.52;;
29774;SDS011;16676;51.202;6.774;2023-04-28T12:08:35;3.45;;;1.40;;
29774;SDS011;16676;51.202;6.774;2023-04-28T12:12:37;1.65;;;1.15;;
29774;SDS011;16676;51.202;6.774;2023-04-28T12:16:39;2.38;;;1.08;;
29774;SDS011;16676;51.202;6.774;2023-04-28T12:20:48;7.22;;;1.40;;
29774;SDS011;16676;51.202;6.774;2023-04-28T12:25:03;4.05;;;1.63;;
29774;SDS011;16676;51.202;6.774;2023-04-28T12:29:07;3.17;;;1.48;;
29774;SDS011;16676;51.202;6.774;2023-04-28T12:33:20;3.72;;;1.40;;
29774;SDS011;16676;51.202;6.774;2023-04-28T12:37:25;5.75;;;1.60;;
29774;SDS011;16676;51.202;6.774;2023-04-28T12:41:27;2.72;;;1.38;;
29774;SDS011;16676;51.202;6.774;2023-04-28T12:45:29;2.05;;;1.02;;
29774;SDS011;16676;51.202;6.774;2023-04-28T12:49:32;1.35;;;1.05;;
29774;SDS011;16676;51.202;6.774;2023-04-28T12:53:36;2.60;;;1.25;;
29774;SDS011;16676;51.202;6.774;2023-04-28T12:57:38;2.22;;;1.45;;
29774;SDS011;16676;51.202;6.774;2023-04-28T13:01:40;2.20;;;1.30;;
29774;SDS011;16676;51.202;6.774;2023-04-28T13:05:42;4.10;;;1.48;;
29774;SDS011;16676;51.202;6.774;2023-04-28T13:09:45;3.92;;;1.55;;
29774;SDS011;16676;51.202;6.774;2023-04-28T13:13:48;2.88;;;1.40;;
29774;SDS011;16676;51.202;6.774;2023-04-28T13:17:50;2.67;;;1.10;;
29774;SDS011;16676;51.202;6.774;2023-04-28T13:21:52;3.63;;;1.60;;
29774;SDS011;16676;51.202;6.774;2023-04-28T13:25:55;3.28;;;1.60;;
29774;SDS011;16676;51.202;6.774;2023-04-28T13:29:57;2.75;;;1.38;;
29774;SDS011;16676;51.202;6.774;2023-04-28T13:33:59;2.85;;;1.30;;
29774;SDS011;16676;51.202;6.774;2023-04-28T13:38:03;1.70;;;1.05;;
29774;SDS011;16676;51.202;6.774;2023-04-28T13:42:06;2.42;;;1.30;;
29774;SDS011;16676;51.202;6.774;2023-04-28T13:46:08;4.15;;;1.60;;
29774;SDS011;16676;51.202;6.774;2023-04-28T13:50:11;3.55;;;1.20;;
29774;SDS011;16676;51.202;6.774;2023-04-28T13:54:13;3.25;;;1.48;;
29774;SDS011;16676;51.202;6.774;2023-04-28T13:58:16;4.95;;;1.35;;
29774;SDS011;16676;51.202;6.774;2023-04-28T14:02:18;3.92;;;1.40;;
29774;SDS011;16676;51.202;6.774;2023-04-28T14:06:20;3.42;;;1.58;;
29774;SDS011;16676;51.202;6.774;2023-04-28T14:10:22;6.50;;;1.45;;
29774;SDS011;16676;51.202;6.774;2023-04-28T14:14:27;2.85;;;1.40;;
29774;SDS011;16676;51.202;6.774;2023-04-28T14:18:29;3.05;;;1.52;;
29774;SDS011;16676;51.202;6.774;2023-04-28T14:22:33;2.78;;;1.50;;
29774;SDS011;16676;51.202;6.774;2023-04-28T14:26:34;3.92;;;1.27;;
29774;SDS011;16676;51.202;6.774;2023-04-28T14:30:38;7.50;;;1.67;;
29774;SDS011;16676;51.202;6.774;2023-04-28T14:34:40;2.78;;;1.60;;
29774;SDS011;16676;51.202;6.774;2023-04-28T14:38:42;4.75;;;1.48;;
29774;SDS011;16676;51.202;6.774;2023-04-28T14:42:44;2.13;;;1.23;;
29774;SDS011;16676;51.202;6.774;2023-04-28T14:46:48;4.57;;;1.50;;
29774;SDS011;16676;51.202;6.774;2023-04-28T14:50:50;3.60;;;1.38;;
29774;SDS011;16676;51.202;6.774;2023-04-28T14:54:52;4.03;;;1.50;;
29774;SDS011;16676;51.202;6.774;2023-04-28T14:58:55;4.10;;;1.30;;
29774;SDS011;16676;51.202;6.774;2023-04-28T15:02:58;2.30;;;1.40;;
29774;SDS011;16676;51.202;6.774;2023-04-28T15:07:00;2.03;;;1.15;;
29774;SDS011;16676;51.202;6.774;2023-04-28T15:11:02;6.60;;;1.75;;
29774;SDS011;16676;51.202;6.774;2023-04-28T15:15:05;4.15;;;0.90;;
29774;SDS011;16676;51.202;6.774;2023-04-28T15:19:09;9.80;;;1.35;;
29774;SDS011;16676;51.202;6.774;2023-04-28T15:23:11;5.10;;;1.38;;
29774;SDS011;16676;51.202;6.774;2023-04-28T15:27:13;7.13;;;1.20;;
29774;SDS011;16676;51.202;6.774;2023-04-28T15:31:15;9.93;;;1.10;;
29774;SDS011;16676;51.202;6.774;2023-04-28T15:35:18;8.65;;;1.73;;
29774;SDS011;16676;51.202;6.774;2023-04-28T15:39:21;17.15;;;2.55;;
29774;SDS011;16676;51.202;6.774;2023-04-28T15:43:24;4.20;;;1.55;;
29774;SDS011;16676;51.202;6.774;2023-04-28T15:47:26;6.35;;;1.98;;
29774;SDS011;16676;51.202;6.774;2023-04-28T15:51:31;5.47;;;1.20;;
29774;SDS011;16676;51.202;6.774;2023-04-28T15:55:33;5.55;;;1.60;;
29774;SDS011;16676;51.202;6.774;2023-04-28T15:59:35;1.63;;;1.27;;
29774;SDS011;16676;51.202;6.774;2023-04-28T16:03:37;11.02;;;1.48;;
29774;SDS011;16676;51.202;6.774;2023-04-28T16:07:40;12.30;;;1.70;;
29774;SDS011;16676;51.202;6.774;2023-04-28T16:11:43;7.90;;;1.70;;
29774;SDS011;16676;51.202;6.774;2023-04-28T16:15:46;9.85;;;1.90;;
29774;SDS011;16676;51.202;6.774;2023-04-28T16:19:50;4.35;;;1.38;;
29774;SDS011;16676;51.202;6.774;2023-04-28T16:23:53;8.60;;;1.45;;
29774;SDS011;16676;51.202;6.774;2023-04-28T16:27:55;7.25;;;1.85;;
29774;SDS011;16676;51.202;6.774;2023-04-28T16:31:57;10.32;;;1.58;;
29774;SDS011;16676;51.202;6.774;2023-04-28T16:35:59;4.30;;;1.65;;
29774;SDS011;16676;51.202;6.774;2023-04-28T16:40:02;6.40;;;1.67;;
29774;SDS011;16676;51.202;6.774;2023-04-28T16:44:05;5.25;;;1.67;;
29774;SDS011;16676;51.202;6.774;2023-04-28T16:48:08;5.53;;;1.83;;
29774;SDS011;16676;51.202;6.774;2023-04-28T16:52:09;9.23;;;2.17;;
29774;SDS011;16676;51.202;6.774;2023-04-28T16:56:13;7.80;;;1.80;;
29774;SDS011;16676;51.202;6.774;2023-04-28T17:00:15;4.70;;;1.88;;
29774;SDS011;16676;51.202;6.774;2023-04-28T17:04:18;3.88;;;1.83;;
29774;SDS011;16676;51.202;6.774;2023-04-28T17:08:20;5.10;;;1.92;;
29774;SDS011;16676;51.202;6.774;2023-04-28T17:12:23;4.55;;;1.85;;
29774;SDS011;16676;51.202;6.774;2023-04-28T17:16:29;5.90;;;2.35;;
29774;SDS011;16676;51.202;6.774;2023-04-28T17:20:31;10.55;;;4.70;;
29774;SDS011;16676;51.202;6.774;2023-04-28T17:24:33;15.90;;;5.85;;
29774;SDS011;16676;51.202;6.774;2023-04-28T17:28:36;19.38;;;6.40;;
29774;SDS011;16676;51.202;6.774;2023-04-28T17:32:40;29.88;;;9.65;;
29774;SDS011;16676;51.202;6.774;2023-04-28T17:36:42;43.38;;;12.32;;
29774;SDS011;16676;51.202;6.774;2023-04-28T17:40:44;50.72;;;15.48;;
29774;SDS011;16676;51.202;6.774;2023-04-28T17:44:49;73.90;;;26.95;;
29774;SDS011;16676;51.202;6.774;2023-04-28T17:48:51;75.22;;;28.58;;
29774;SDS011;16676;51.202;6.774;2023-04-28T17:52:52;72.57;;;29.33;;
29774;SDS011;16676;51.202;6.774;2023-04-28T17:56:54;77.53;;;28.30;;
29774;SDS011;16676;51.202;6.774;2023-04-28T18:01:01;65.22;;;27.88;;
29774;SDS011;16676;51.202;6.774;2023-04-28T18:05:04;60.77;;;24.80;;
29774;SDS011;16676;51.202;6.774;2023-04-28T18:09:06;44.38;;;19.75;;
29774;SDS011;16676;51.202;6.774;2023-04-28T18:13:08;38.33;;;16.23;;
29774;SDS011;16676;51.202;6.774;2023-04-28T18:17:11;30.80;;;12.98;;
29774;SDS011;16676;51.202;6.774;2023-04-28T18:21:13;24.60;;;10.80;;
29774;SDS011;16676;51.202;6.774;2023-04-28T18:25:15;27.52;;;10.23;;
29774;SDS011;16676;51.202;6.774;2023-04-28T18:29:18;24.15;;;9.65;;
29774;SDS011;16676;51.202;6.774;2023-04-28T18:33:21;21.17;;;8.65;;
29774;SDS011;16676;51.202;6.774;2023-04-28T18:37:27;21.25;;;9.68;;
29774;SDS011;16676;51.202;6.774;2023-04-28T18:41:29;17.50;;;8.45;;
29774;SDS011;16676;51.202;6.774;2023-04-28T18:45:32;16.17;;;7.32;;
29774;SDS011;16676;51.202;6.774;2023-04-28T18:49:36;17.83;;;7.03;;
29774;SDS011;16676;51.202;6.774;2023-04-28T18:53:38;14.35;;;6.25;;
29774;SDS011;16676;51.202;6.774;2023-04-28T18:57:40;13.85;;;6.18;;
29774;SDS011;16676;51.202;6.774;2023-04-28T19:01:42;15.13;;;5.90;;
29774;SDS011;16676;51.202;6.774;2023-04-28T19:05:46;11.32;;;5.63;;
29774;SDS011;16676;51.202;6.774;2023-04-28T19:09:48;9.07;;;5.15;;
29774;SDS011;16676;51.202;6.774;2023-04-28T19:13:50;10.10;;;4.65;;
29774;SDS011;16676;51.202;6.774;2023-04-28T19:17:53;10.68;;;5.80;;
29774;SDS011;16676;51.202;6.774;2023-04-28T19:21:57;9.02;;;5.45;;
29774;SDS011;16676;51.202;6.774;2023-04-28T19:25:58;6.15;;;3.70;;
29774;SDS011;16676;51.202;6.774;2023-04-28T19:30:01;6.00;;;3.75;;
29774;SDS011;16676;51.202;6.774;2023-04-28T19:34:04;7.93;;;3.63;;
29774;SDS011;16676;51.202;6.774;2023-04-28T19:38:07;8.10;;;3.60;;
29774;SDS011;16676;51.202;6.774;2023-04-28T19:42:09;8.00;;;4.03;;
29774;SDS011;16676;51.202;6.774;2023-04-28T19:46:11;5.75;;;3.63;;
29774;SDS011;16676;51.202;6.774;2023-04-28T19:50:14;4.95;;;3.30;;
29774;SDS011;16676;51.202;6.774;2023-04-28T19:54:19;6.88;;;3.58;;
29774;SDS011;16676;51.202;6.774;2023-04-28T19:58:22;5.00;;;3.13;;
29774;SDS011;16676;51.202;6.774;2023-04-28T20:02:24;7.00;;;3.53;;
29774;SDS011;16676;51.202;6.774;2023-04-28T20:06:26;6.65;;;3.13;;
29774;SDS011;16676;51.202;6.774;2023-04-28T20:10:30;5.55;;;3.13;;
29774;SDS011;16676;51.202;6.774;2023-04-28T20:14:32;5.82;;;3.05;;
29774;SDS011;16676;51.202;6.774;2023-04-28T20:18:34;7.28;;;3.20;;
29774;SDS011;16676;51.202;6.774;2023-04-28T20:22:36;5.97;;;2.75;;
29774;SDS011;16676;51.202;6.774;2023-04-28T20:26:41;5.07;;;3.17;;
29774;SDS011;16676;51.202;6.774;2023-04-28T20:30:43;6.03;;;3.00;;
29774;SDS011;16676;51.202;6.774;2023-04-28T20:34:45;4.13;;;3.10;;
29774;SDS011;16676;51.202;6.774;2023-04-28T20:38:47;3.97;;;2.75;;
29774;SDS011;16676;51.202;6.774;2023-04-28T20:42:50;4.45;;;2.90;;
29774;SDS011;16676;51.202;6.774;2023-04-28T20:46:52;4.97;;;2.63;;
29774;SDS011;16676;51.202;6.774;2023-04-28T20:50:54;4.85;;;3.03;;
29774;SDS011;16676;51.202;6.774;2023-04-28T20:54:56;4.57;;;3.20;;
29774;SDS011;16676;51.202;6.774;2023-04-28T20:59:00;3.50;;;2.60;;
29774;SDS011;16676;51.202;6.774;2023-04-28T21:03:02;6.13;;;2.70;;
29774;SDS011;16676;51.202;6.774;2023-04-28T21:07:04;7.07;;;2.90;;
29774;SDS011;16676;51.202;6.774;2023-04-28T21:11:09;3.72;;;2.25;;
29774;SDS011;16676;51.202;6.774;2023-04-28T21:15:14;3.65;;;2.20;;
29774;SDS011;16676;51.202;6.774;2023-04-28T21:19:16;4.10;;;2.40;;
29774;SDS011;16676;51.202;6.774;2023-04-28T21:23:18;3.63;;;2.38;;
29774;SDS011;16676;51.202;6.774;2023-04-28T21:27:20;6.63;;;2.15;;
29774;SDS011;16676;51.202;6.774;2023-04-28T21:31:23;7.07;;;2.03;;
29774;SDS011;16676;51.202;6.774;2023-04-28T21:35:25;3.30;;;1.88;;
29774;SDS011;16676;51.202;6.774;2023-04-28T21:39:27;5.97;;;2.05;;
29774;SDS011;16676;51.202;6.774;2023-04-28T21:43:29;3.03;;;2.05;;
29774;SDS011;16676;51.202;6.774;2023-04-28T21:47:33;5.70;;;2.15;;
29774;SDS011;16676;51.202;6.774;2023-04-28T21:51:34;3.40;;;1.75;;
29774;SDS011;16676;51.202;6.774;2023-04-28T21:55:36;3.78;;;2.00;;
29774;SDS011;16676;51.202;6.774;2023-04-28T21:59:39;3.08;;;1.80;;
29774;SDS011;16676;51.202;6.774;2023-04-28T22:03:42;3.20;;;1.88;;
29774;SDS011;16676;51.202;6.774;2023-04-28T22:07:44;6.35;;;2.03;;
29774;SDS011;16676;51.202;6.774;2023-04-28T22:11:47;4.10;;;1.80;;
29774;SDS011;16676;51.202;6.774;2023-04-28T22:15:49;7.00;;;2.00;;
29774;SDS011;16676;51.202;6.774;2023-04-28T22:19:52;6.22;;;1.98;;
29774;SDS011;16676;51.202;6.774;2023-04-28T22:23:54;5.15;;;2.05;;
29774;SDS011;16676;51.202;6.774;2023-04-28T22:27:56;4.20;;;1.70;;
29774;SDS011;16676;51.202;6.774;2023-04-28T22:31:58;5.18;;;1.80;;
29774;SDS011;16676;51.202;6.774;2023-04-28T22:36:03;5.97;;;1.63;;
29774;SDS011;16676;51.202;6.774;2023-04-28T22:40:05;4.93;;;1.70;;
29774;SDS011;16676;51.202;6.774;2023-04-28T22:44:08;4.68;;;1.50;;
29774;SDS011;16676;51.202;6.774;2023-04-28T22:48:10;3.47;;;1.50;;
29774;SDS011;16676;51.202;6.774;2023-04-28T22:52:13;5.53;;;1.90;;
29774;SDS011;16676;51.202;6.774;2023-04-28T22:56:17;3.50;;;1.85;;
29774;SDS011;16676;51.202;6.774;2023-04-28T23:00:19;3.83;;;1.63;;
29774;SDS011;16676;51.202;6.774;2023-04-28T23:04:21;3.70;;;1.60;;
29774;SDS011;16676;51.202;6.774;2023-04-28T23:08:24;2.78;;;1.90;;
29774;SDS011;16676;51.202;6.774;2023-04-28T23:12:26;3.90;;;1.80;;
29774;SDS011;16676;51.202;6.774;2023-04-28T23:16:29;3.65;;;1.63;;
29774;SDS011;16676;51.202;6.774;2023-04-28T23:20:31;4.55;;;1.58;;
29774;SDS011;16676;51.202;6.774;2023-04-28T23:24:35;3.53;;;1.90;;
29774;SDS011;16676;51.202;6.774;2023-04-28T23:28:40;3.00;;;1.67;;
29774;SDS011;16676;51.202;6.774;2023-04-28T23:32:42;2.72;;;1.60;;
29774;SDS011;16676;51.202;6.774;2023-04-28T23:36:44;3.92;;;1.70;;
29774;SDS011;16676;51.202;6.774;2023-04-28T23:40:47;3.63;;;1.33;;
29774;SDS011;16676;51.202;6.774;2023-04-28T23:44:49;2.92;;;1.50;;
29774;SDS011;16676;51.202;6.774;2023-04-28T23:48:52;2.67;;;1.60;;
29774;SDS011;16676;51.202;6.774;2023-04-28T23:52:54;1.88;;;1.35;;
29774;SDS011;16676;51.202;6.774;2023-04-28T23:56:58;3.20;;;1.92;;
